createdAt,value
2018-03-24T00:01:03.303Z,90.20
2018-03-24T00:03:30.825Z,90.40
2018-03-24T00:05:58.288Z,90.70
2018-03-24T00:08:26.554Z,90.50
2018-03-24T00:10:54.774Z,90.70
2018-03-24T00:13:22.295Z,90.70
2018-03-24T00:15:50.542Z,90.70
2018-03-24T00:18:18.034Z,90.70
2018-03-24T00:20:46.274Z,90.40
2018-03-24T00:23:13.775Z,90.40
2018-03-24T00:25:42.000Z,90.20
2018-03-24T00:28:09.535Z,90.10
2018-03-24T00:30:37.007Z,90.10
2018-03-24T00:33:04.476Z,90.00
2018-03-24T00:35:31.984Z,90.50
2018-03-24T00:38:00.228Z,90.20
2018-03-24T00:40:27.770Z,90.20
2018-03-24T00:42:55.956Z,89.40
2018-03-24T00:45:23.437Z,89.40
2018-03-24T00:47:50.926Z,90.00
2018-03-24T00:50:18.396Z,89.90
2018-03-24T00:52:45.894Z,89.00
2018-03-24T00:55:13.382Z,90.00
2018-03-24T00:57:41.697Z,90.60
2018-03-24T01:00:09.165Z,90.50
2018-03-24T01:02:36.695Z,90.20
2018-03-24T01:05:04.930Z,89.90
2018-03-24T01:07:33.987Z,89.70
2018-03-24T01:10:01.446Z,89.60
2018-03-24T01:12:28.917Z,89.80
2018-03-24T01:14:56.415Z,89.10
2018-03-24T01:17:23.886Z,89.40
2018-03-24T01:19:52.142Z,89.00
2018-03-24T01:22:19.636Z,89.00
2018-03-24T01:24:47.105Z,88.70
2018-03-24T01:27:14.603Z,89.00
2018-03-24T01:29:42.095Z,89.80
2018-03-24T01:32:10.342Z,89.50
2018-03-24T01:34:37.798Z,89.50
2018-03-24T01:37:05.310Z,88.90
2018-03-24T01:39:32.782Z,88.80
2018-03-24T01:42:00.274Z,87.20
2018-03-24T01:44:27.775Z,88.20
2018-03-24T01:46:55.997Z,88.10
2018-03-24T01:49:23.492Z,88.10
2018-03-24T01:51:50.964Z,88.00
2018-03-24T01:54:19.217Z,85.20
2018-03-24T01:56:46.691Z,85.10
2018-03-24T01:59:14.942Z,86.70
2018-03-24T02:01:42.403Z,86.70
2018-03-24T02:04:09.915Z,86.80
2018-03-24T02:06:37.389Z,86.30
2018-03-24T02:09:04.883Z,86.00
2018-03-24T02:11:32.348Z,85.90
2018-03-24T02:14:00.604Z,86.00
2018-03-24T02:16:28.106Z,85.90
2018-03-24T02:18:56.369Z,86.20
2018-03-24T02:21:24.615Z,84.10
2018-03-24T02:23:52.114Z,84.10
2018-03-24T02:26:20.456Z,86.30
2018-03-24T02:28:47.925Z,86.30
2018-03-24T02:31:15.394Z,86.20
2018-03-24T02:33:43.679Z,84.30
2018-03-24T02:36:11.938Z,85.50
2018-03-24T02:38:39.425Z,85.50
2018-03-24T02:41:07.005Z,85.90
2018-03-24T02:43:34.477Z,86.00
2018-03-24T02:46:01.991Z,83.90
2018-03-24T02:48:30.252Z,85.80
2018-03-24T02:50:57.727Z,85.80
2018-03-24T02:53:25.982Z,84.60
2018-03-24T02:55:53.516Z,84.60
2018-03-24T02:58:21.018Z,83.10
2018-03-24T03:00:49.286Z,82.70
2018-03-24T03:03:16.741Z,82.70
2018-03-24T03:05:44.234Z,82.70
2018-03-24T03:08:11.716Z,84.20
2018-03-24T03:10:39.227Z,84.10
2018-03-24T03:13:07.470Z,84.80
2018-03-24T03:15:34.974Z,84.70
2018-03-24T03:18:03.211Z,84.20
2018-03-24T03:20:30.711Z,84.20
2018-03-24T03:22:58.958Z,84.30
2018-03-24T03:25:26.512Z,84.30
2018-03-24T03:27:54.017Z,85.20
2018-03-24T03:30:32.261Z,85.80
2018-03-24T03:32:59.746Z,86.30
2018-03-24T03:35:27.206Z,87.00
2018-03-24T03:37:54.718Z,86.70
2018-03-24T03:40:22.203Z,88.20
2018-03-24T03:42:49.695Z,89.70
2018-03-24T03:45:17.169Z,89.50
2018-03-24T03:47:45.419Z,89.00
2018-03-24T03:50:12.891Z,89.00
2018-03-24T03:52:41.163Z,88.90
2018-03-24T03:55:08.633Z,88.90
2018-03-24T03:57:36.903Z,88.10
2018-03-24T04:00:05.138Z,88.10
2018-03-24T04:02:32.626Z,88.10
2018-03-24T04:05:00.117Z,88.60
2018-03-24T04:07:27.585Z,89.90
2018-03-24T04:09:55.102Z,90.00
2018-03-24T04:12:22.561Z,90.00
2018-03-24T04:14:50.042Z,88.90
2018-03-24T04:17:18.278Z,89.40
2018-03-24T04:19:45.773Z,89.30
2018-03-24T04:22:14.009Z,90.10
2018-03-24T04:24:41.510Z,90.10
2018-03-24T04:27:09.755Z,88.70
2018-03-24T04:29:37.241Z,88.70
2018-03-24T04:32:05.507Z,88.90
2018-03-24T04:34:32.966Z,88.90
2018-03-24T04:37:01.216Z,87.80
2018-03-24T04:39:28.686Z,87.70
2018-03-24T04:41:56.187Z,87.90
2018-03-24T04:44:23.681Z,87.20
2018-03-24T04:46:51.166Z,88.10
2018-03-24T04:49:18.629Z,88.00
2018-03-24T04:51:46.138Z,88.20
2018-03-24T04:54:13.598Z,88.60
2018-03-24T04:56:41.105Z,88.30
2018-03-24T04:59:08.570Z,88.60
2018-03-24T05:01:36.881Z,87.10
2018-03-24T05:04:04.357Z,87.10
2018-03-24T05:06:32.475Z,88.60
2018-03-24T05:08:59.975Z,88.50
2018-03-24T05:11:27.454Z,88.90
2018-03-24T05:13:54.935Z,88.10
2018-03-24T05:16:22.435Z,87.50
2018-03-24T05:18:49.910Z,87.30
2018-03-24T05:21:17.382Z,86.60
2018-03-24T05:23:44.882Z,85.90
2018-03-24T05:26:12.410Z,86.90
2018-03-24T05:28:40.636Z,85.40
2018-03-24T05:31:08.863Z,85.50
2018-03-24T05:33:36.350Z,85.50
2018-03-24T05:36:03.822Z,84.90
2018-03-24T05:38:32.082Z,82.20
2018-03-24T05:40:59.546Z,82.20
2018-03-24T05:43:27.026Z,83.00
2018-03-24T05:45:55.299Z,83.10
2018-03-24T05:48:23.538Z,83.20
2018-03-24T05:50:51.037Z,83.20
2018-03-24T05:53:19.266Z,83.80
2018-03-24T05:55:46.754Z,83.80
2018-03-24T05:58:14.246Z,91.40
2018-03-24T06:00:41.747Z,78.20
2018-03-24T06:03:09.224Z,68.50
2018-03-24T06:05:36.747Z,74.40
2018-03-24T06:08:04.293Z,77.90
2018-03-24T06:10:31.802Z,81.70
2018-03-24T06:12:59.256Z,82.90
2018-03-24T06:15:26.769Z,82.10
2018-03-24T06:17:54.240Z,83.70
2018-03-24T06:20:21.785Z,84.10
2018-03-24T06:22:49.279Z,85.60
2018-03-24T06:25:16.755Z,85.90
2018-03-24T06:27:44.258Z,86.40
2018-03-24T06:30:15.189Z,86.50
2018-03-24T06:32:42.694Z,87.20
2018-03-24T06:35:10.190Z,87.30
2018-03-24T06:37:38.450Z,88.60
2018-03-24T06:40:05.931Z,88.60
2018-03-24T06:42:34.210Z,89.40
2018-03-24T06:45:02.482Z,89.10
2018-03-24T06:47:30.777Z,89.80
2018-03-24T06:49:58.289Z,89.70
2018-03-24T06:52:25.815Z,90.60
2018-03-24T06:54:53.796Z,90.90
2018-03-24T06:57:21.299Z,91.20
2018-03-24T06:59:49.576Z,91.30
2018-03-24T07:02:17.846Z,91.40
2018-03-24T07:04:45.336Z,91.40
2018-03-24T07:07:12.819Z,91.50
2018-03-24T07:09:40.302Z,91.40
2018-03-24T07:12:07.789Z,91.50
2018-03-24T07:14:36.054Z,91.40
2018-03-24T07:17:03.536Z,91.40
2018-03-24T07:19:31.797Z,86.70
2018-03-24T07:22:00.062Z,84.30
2018-03-24T07:24:29.052Z,81.90
2018-03-24T07:26:56.547Z,82.00
2018-03-24T07:29:24.810Z,83.70
2018-03-24T07:31:53.062Z,81.70
2018-03-24T07:34:20.563Z,81.50
2018-03-24T07:36:48.078Z,84.30
2018-03-24T07:39:15.575Z,86.40
2018-03-24T07:41:43.116Z,87.90
2018-03-24T07:44:11.345Z,88.20
2018-03-24T07:46:38.855Z,88.20
2018-03-24T07:49:07.120Z,84.20
2018-03-24T07:51:34.598Z,84.10
2018-03-24T07:54:02.843Z,80.40
2018-03-24T07:56:30.324Z,80.30
2018-03-24T07:58:58.604Z,79.10
2018-03-24T08:01:26.837Z,77.20
2018-03-24T08:03:54.334Z,77.20
2018-03-24T08:06:21.845Z,77.60
2018-03-24T08:08:49.339Z,75.50
2018-03-24T08:11:16.807Z,73.60
2018-03-24T08:13:45.076Z,74.00
2018-03-24T08:16:12.557Z,74.00
2018-03-24T08:18:40.082Z,72.20
2018-03-24T08:21:07.570Z,72.30
2018-03-24T08:23:35.067Z,70.40
2018-03-24T08:26:02.557Z,68.50
2018-03-24T08:28:30.047Z,68.80
2018-03-24T08:30:58.294Z,67.30
2018-03-24T08:33:25.808Z,67.20
2018-03-24T08:35:53.322Z,67.10
2018-03-24T08:38:20.841Z,65.80
2018-03-24T08:40:48.350Z,65.30
2018-03-24T08:43:16.591Z,64.90
2018-03-24T08:45:44.124Z,65.00
2018-03-24T08:48:11.597Z,64.60
2018-03-24T08:50:39.108Z,63.10
2018-03-24T08:53:07.347Z,62.50
2018-03-24T08:55:34.828Z,62.50
2018-03-24T08:58:02.359Z,62.40
2018-03-24T09:00:29.874Z,61.90
2018-03-24T09:02:57.343Z,61.30
2018-03-24T09:05:24.845Z,61.20
2018-03-24T09:07:52.367Z,61.00
2018-03-24T09:10:19.847Z,62.10
2018-03-24T09:12:47.350Z,61.00
2018-03-24T09:15:14.819Z,61.00
2018-03-24T09:17:43.110Z,60.50
2018-03-24T09:20:10.614Z,60.50
2018-03-24T09:22:38.127Z,60.20
2018-03-24T09:25:06.354Z,60.40
2018-03-24T09:27:33.866Z,60.40
2018-03-24T09:30:01.346Z,60.10
2018-03-24T09:32:28.824Z,60.10
2018-03-24T09:34:56.323Z,60.00
2018-03-24T09:37:24.551Z,57.00
2018-03-24T09:39:52.052Z,57.00
2018-03-24T09:42:19.559Z,55.30
2018-03-24T09:44:47.067Z,54.50
2018-03-24T09:47:15.319Z,54.50
2018-03-24T09:49:42.842Z,54.50
2018-03-24T09:52:10.364Z,53.70
2018-03-24T09:54:37.831Z,19.60
2018-03-24T09:57:06.114Z,19.30
2018-03-24T09:59:34.412Z,51.70
2018-03-24T10:02:02.667Z,51.90
2018-03-24T10:04:30.135Z,51.90
2018-03-24T10:06:57.675Z,18.50
2018-03-24T10:09:25.949Z,17.40
2018-03-24T10:11:54.229Z,16.70
2018-03-24T10:14:22.495Z,16.40
2018-03-24T10:16:50.017Z,50.00
2018-03-24T10:19:17.476Z,16.50
2018-03-24T10:24:48.864Z,16.80
2018-03-24T10:27:16.418Z,16.20
2018-03-24T10:29:43.904Z,16.50
2018-03-24T10:32:11.378Z,16.60
2018-03-24T10:34:39.632Z,16.10
2018-03-24T10:37:07.118Z,16.10
2018-03-24T10:39:35.350Z,14.20
2018-03-24T10:42:02.872Z,14.10
2018-03-24T10:44:30.323Z,15.60
2018-03-24T10:46:57.827Z,16.10
2018-03-24T10:49:25.298Z,16.40
2018-03-24T10:51:53.583Z,15.90
2018-03-24T10:54:21.106Z,15.90
2018-03-24T10:56:48.626Z,15.80
2018-03-24T10:59:16.874Z,15.10
2018-03-24T11:01:44.393Z,14.90
2018-03-24T11:04:11.888Z,14.30
2018-03-24T11:06:39.399Z,15.50
2018-03-24T11:09:06.895Z,14.80
2018-03-24T11:11:34.420Z,14.70
2018-03-24T11:14:01.936Z,14.50
2018-03-24T11:16:29.437Z,14.10
2018-03-24T11:18:56.937Z,14.60
2018-03-24T11:21:24.426Z,15.50
2018-03-24T11:23:52.696Z,14.90
2018-03-24T11:26:20.949Z,15.50
2018-03-24T11:28:48.433Z,15.50
2018-03-24T11:31:16.719Z,16.00
2018-03-24T11:33:44.247Z,15.80
2018-03-24T11:36:11.759Z,16.70
2018-03-24T11:38:39.230Z,15.90
2018-03-24T11:41:06.759Z,16.80
2018-03-24T11:43:34.282Z,16.80
2018-03-24T11:46:01.790Z,17.20
2018-03-24T11:48:29.270Z,17.70
2018-03-24T11:50:56.797Z,18.60
2018-03-24T11:53:36.322Z,17.20
2018-03-24T11:56:04.619Z,16.80
2018-03-24T11:58:32.120Z,16.80
2018-03-24T12:00:59.648Z,16.90
2018-03-24T12:03:27.141Z,17.20
2018-03-24T12:05:54.647Z,17.20
2018-03-24T12:08:22.197Z,17.30
2018-03-24T12:10:49.675Z,17.30
2018-03-24T12:13:17.199Z,18.30
2018-03-24T12:15:44.674Z,18.00
2018-03-24T12:18:12.935Z,16.10
2018-03-24T12:20:41.193Z,16.80
2018-03-24T12:23:08.701Z,16.80
2018-03-24T12:25:36.190Z,17.40
2018-03-24T12:28:03.675Z,17.20
2018-03-24T12:30:31.196Z,17.60
2018-03-24T12:32:58.740Z,17.50
2018-03-24T12:35:26.976Z,17.30
2018-03-24T12:37:54.503Z,17.10
2018-03-24T12:40:22.026Z,17.20
2018-03-24T12:42:50.278Z,17.20
2018-03-24T12:45:17.771Z,17.20
2018-03-24T12:47:45.278Z,17.10
2018-03-24T12:50:12.779Z,17.30
2018-03-24T12:52:41.077Z,17.20
2018-03-24T12:55:08.565Z,17.20
2018-03-24T12:57:36.066Z,17.40
2018-03-24T13:00:04.328Z,16.90
2018-03-24T13:02:31.835Z,16.70
2018-03-24T13:04:59.326Z,17.10
2018-03-24T13:07:26.826Z,17.20
2018-03-24T13:09:54.316Z,17.00
2018-03-24T13:12:21.834Z,17.60
2018-03-24T13:14:50.079Z,17.40
2018-03-24T13:17:17.583Z,17.30
2018-03-24T13:19:45.078Z,17.10
2018-03-24T13:22:12.553Z,16.30
2018-03-24T13:24:40.067Z,16.50
2018-03-24T13:27:07.568Z,16.80
2018-03-24T13:29:35.094Z,17.20
2018-03-24T13:32:02.595Z,17.10
2018-03-24T13:34:30.118Z,17.50
2018-03-24T13:36:57.582Z,17.00
2018-03-24T13:39:25.096Z,16.60
2018-03-24T13:41:53.370Z,16.60
2018-03-24T13:44:21.676Z,16.50
2018-03-24T13:46:49.164Z,16.50
2018-03-24T13:49:16.662Z,16.30
2018-03-24T13:51:44.935Z,16.70
2018-03-24T13:54:13.222Z,16.90
2018-03-24T13:56:41.499Z,16.80
2018-03-24T13:59:09.758Z,16.50
2018-03-24T14:01:37.293Z,16.50
2018-03-24T14:04:04.778Z,16.00
2018-03-24T14:06:32.302Z,16.20
2018-03-24T14:08:59.808Z,16.00
2018-03-24T14:11:28.090Z,16.00
2018-03-24T14:13:56.320Z,16.10
2018-03-24T14:16:23.858Z,15.90
2018-03-24T14:18:51.327Z,15.80
2018-03-24T14:21:18.847Z,16.60
2018-03-24T14:23:47.133Z,17.10
2018-03-24T14:26:15.409Z,16.80
2018-03-24T14:28:43.706Z,17.00
2018-03-24T14:31:11.216Z,17.00
2018-03-24T14:33:38.731Z,16.70
2018-03-24T14:36:06.229Z,16.80
2018-03-24T14:38:33.744Z,16.40
2018-03-24T14:41:01.221Z,16.20
2018-03-24T14:43:28.746Z,16.80
2018-03-24T14:45:56.236Z,16.80
2018-03-24T14:48:23.766Z,16.80
2018-03-24T14:50:51.285Z,16.60
2018-03-24T14:53:18.800Z,17.10
2018-03-24T14:55:46.306Z,16.90
2018-03-24T14:58:13.854Z,16.80
2018-03-24T15:00:41.388Z,16.80
2018-03-24T15:03:08.910Z,16.60
2018-03-24T15:05:37.216Z,16.70
2018-03-24T15:08:04.783Z,16.70
2018-03-24T15:10:32.329Z,17.00
2018-03-24T15:12:59.831Z,16.60
2018-03-24T15:15:27.394Z,16.90
2018-03-24T15:17:54.880Z,16.80
2018-03-24T15:20:23.167Z,17.00
2018-03-24T15:22:51.414Z,17.10
2018-03-24T15:25:18.978Z,17.10
2018-03-24T15:27:46.458Z,17.20
2018-03-24T15:30:26.056Z,16.90
2018-03-24T15:32:53.543Z,17.40
2018-03-24T15:35:34.387Z,17.50
2018-03-24T15:38:02.640Z,17.50
2018-03-24T15:40:30.143Z,17.50
2018-03-24T15:42:57.691Z,17.30
2018-03-24T15:45:25.237Z,17.40
2018-03-24T15:47:52.745Z,17.30
2018-03-24T15:50:20.997Z,17.40
2018-03-24T15:52:48.487Z,17.20
2018-03-24T15:55:15.990Z,17.20
2018-03-24T15:57:43.487Z,17.30
2018-03-24T16:00:11.028Z,17.30
2018-03-24T16:02:38.550Z,16.90
2018-03-24T16:05:06.051Z,16.90
2018-03-24T16:07:33.571Z,16.90
2018-03-24T16:10:01.099Z,16.90
2018-03-24T16:12:28.640Z,17.20
2018-03-24T16:14:56.150Z,16.80
2018-03-24T16:17:23.674Z,16.90
2018-03-24T16:19:51.907Z,17.20
2018-03-24T16:22:19.403Z,17.20
2018-03-24T16:24:47.682Z,17.00
2018-03-24T16:27:15.977Z,16.20
2018-03-24T16:29:43.516Z,16.20
2018-03-24T16:32:11.770Z,16.50
2018-03-24T16:34:39.299Z,16.50
2018-03-24T16:37:06.840Z,16.90
2018-03-24T16:39:34.417Z,17.40
2018-03-24T16:42:02.662Z,17.60
2018-03-24T16:44:30.516Z,17.60
2018-03-24T16:46:58.787Z,17.90
2018-03-24T16:49:27.088Z,17.90
2018-03-24T16:51:54.608Z,17.90
2018-03-24T16:54:22.146Z,17.90
2018-03-24T16:56:50.413Z,18.10
2018-03-24T16:59:17.964Z,18.00
2018-03-24T17:01:45.463Z,18.20
2018-03-24T17:04:13.020Z,18.40
2018-03-24T17:06:40.530Z,18.60
2018-03-24T17:09:08.055Z,18.60
2018-03-24T17:11:36.965Z,18.30
2018-03-24T17:14:05.196Z,18.10
2018-03-24T17:16:32.735Z,18.10
2018-03-24T17:19:00.211Z,18.50
2018-03-24T17:21:27.739Z,53.10
2018-03-24T17:23:55.243Z,53.10
2018-03-24T17:26:22.778Z,53.00
2018-03-24T17:28:50.302Z,52.80
2018-03-24T17:31:18.586Z,53.10
2018-03-24T17:33:46.758Z,53.30
2018-03-24T17:36:14.280Z,53.10
2018-03-24T17:38:41.767Z,52.90
2018-03-24T17:41:09.316Z,53.10
2018-03-24T17:43:37.563Z,53.10
2018-03-24T17:46:05.054Z,52.90
2018-03-24T17:48:33.346Z,52.80
2018-03-24T17:51:00.838Z,52.80
2018-03-24T17:53:28.339Z,53.00
2018-03-24T17:55:56.605Z,52.90
2018-03-24T17:58:24.119Z,52.90
2018-03-24T18:00:51.630Z,53.30
2018-03-24T18:03:19.154Z,53.40
2018-03-24T18:05:46.633Z,53.60
2018-03-24T18:08:14.147Z,53.80
2018-03-24T18:10:41.664Z,54.10
2018-03-24T18:13:09.188Z,54.40
2018-03-24T18:15:36.671Z,54.70
2018-03-24T18:18:04.206Z,54.70
2018-03-24T18:20:31.750Z,55.00
2018-03-24T18:22:59.999Z,54.90
2018-03-24T18:25:28.267Z,55.20
2018-03-24T18:27:56.539Z,55.00
2018-03-24T18:30:24.016Z,55.10
2018-03-24T18:32:51.526Z,55.60
2018-03-24T18:35:19.036Z,55.50
2018-03-24T18:37:47.291Z,55.80
2018-03-24T18:40:14.810Z,55.80
2018-03-24T18:42:42.320Z,56.00
2018-03-24T18:45:10.606Z,55.40
2018-03-24T18:47:38.859Z,56.20
2018-03-24T18:50:07.135Z,56.30
2018-03-24T18:52:34.607Z,56.40
2018-03-24T18:55:02.868Z,57.50
2018-03-24T18:57:30.348Z,57.50
2018-03-24T18:59:58.624Z,60.20
2018-03-24T19:02:26.887Z,60.70
2018-03-24T19:04:54.369Z,60.60
2018-03-24T19:07:22.666Z,62.20
2018-03-24T19:09:50.182Z,62.20
2018-03-24T19:12:17.681Z,62.00
2018-03-24T19:14:45.196Z,62.30
2018-03-24T19:17:12.710Z,63.00
2018-03-24T19:19:40.204Z,62.70
2018-03-24T19:22:07.721Z,63.50
2018-03-24T19:24:35.236Z,63.70
2018-03-24T19:27:02.765Z,65.20
2018-03-24T19:29:30.270Z,66.00
2018-03-24T19:31:58.546Z,67.30
2018-03-24T19:34:26.815Z,67.60
2018-03-24T19:36:55.097Z,68.20
2018-03-24T19:39:23.346Z,67.30
2018-03-24T19:41:50.834Z,67.30
2018-03-24T19:44:19.080Z,67.80
2018-03-24T19:46:46.604Z,67.80
2018-03-24T19:49:14.082Z,68.40
2018-03-24T19:51:42.540Z,67.20
2018-03-24T19:54:10.016Z,68.10
2018-03-24T19:56:37.529Z,68.00
2018-03-24T19:59:05.821Z,66.90
2018-03-24T20:01:34.086Z,67.00
2018-03-24T20:04:02.362Z,66.90
2018-03-24T20:06:30.607Z,66.50
2018-03-24T20:08:58.133Z,66.50
2018-03-24T20:11:25.631Z,65.60
2018-03-24T20:13:53.138Z,67.60
2018-03-24T20:16:20.609Z,67.30
2018-03-24T20:18:48.119Z,67.80
2018-03-24T20:21:16.393Z,68.00
2018-03-24T20:23:43.942Z,68.00
2018-03-24T20:26:11.414Z,68.50
2018-03-24T20:28:39.692Z,67.30
2018-03-24T20:31:07.238Z,67.30
2018-03-24T20:33:34.727Z,67.10
2018-03-24T20:36:03.010Z,70.60
2018-03-24T20:38:31.259Z,70.60
2018-03-24T20:40:58.802Z,70.60
2018-03-24T20:43:26.287Z,69.90
2018-03-24T20:45:53.768Z,69.20
2018-03-24T20:48:21.271Z,68.80
2018-03-24T20:50:48.786Z,68.00
2018-03-24T20:53:16.295Z,67.70
2018-03-24T20:55:43.805Z,67.60
2018-03-24T20:58:11.335Z,67.70
2018-03-24T21:00:38.847Z,67.10
2018-03-24T21:03:06.372Z,67.20
2018-03-24T21:05:34.616Z,67.20
2018-03-24T21:08:02.103Z,67.20
2018-03-24T21:10:30.414Z,66.50
2018-03-24T21:12:57.926Z,66.50
2018-03-24T21:15:25.436Z,67.20
2018-03-24T21:17:52.940Z,68.70
2018-03-24T21:20:20.430Z,68.20
2018-03-24T21:22:47.934Z,68.00
2018-03-24T21:25:15.436Z,67.80
2018-03-24T21:27:43.698Z,68.30
2018-03-24T21:30:11.969Z,67.50
2018-03-24T21:32:39.443Z,67.50
2018-03-24T21:35:07.727Z,66.80
2018-03-24T21:37:35.977Z,67.80
2018-03-24T21:40:03.487Z,67.80
2018-03-24T21:42:30.988Z,67.60
2018-03-24T21:44:58.483Z,68.00
2018-03-24T21:47:26.758Z,67.90
2018-03-24T21:49:55.042Z,67.60
2018-03-24T21:52:22.512Z,67.60
2018-03-24T21:54:50.028Z,67.60
2018-03-24T21:57:17.567Z,67.90
2018-03-24T21:59:45.047Z,68.40
2018-03-24T22:02:12.565Z,69.80
2018-03-24T22:04:40.072Z,70.30
2018-03-24T22:07:08.798Z,70.50
2018-03-24T22:09:36.302Z,70.50
2018-03-24T22:12:03.788Z,69.60
2018-03-24T22:14:32.057Z,70.50
2018-03-24T22:16:59.564Z,70.50
2018-03-24T22:19:27.062Z,70.90
2018-03-24T22:21:56.089Z,70.00
2018-03-24T22:24:24.367Z,69.80
2018-03-24T22:26:51.861Z,69.70
2018-03-24T22:29:19.344Z,69.90
2018-03-24T22:31:46.851Z,69.40
2018-03-24T22:34:14.326Z,67.90
2018-03-24T22:36:41.837Z,68.40
2018-03-24T22:39:09.298Z,69.30
2018-03-24T22:41:37.567Z,69.00
2018-03-24T22:44:05.047Z,69.00
2018-03-24T22:46:33.313Z,67.90
2018-03-24T22:49:01.565Z,69.20
2018-03-24T22:51:29.087Z,69.20
2018-03-24T22:53:56.611Z,70.50
2018-03-24T22:56:24.898Z,69.90
2018-03-24T22:58:53.148Z,70.00
2018-03-24T23:01:21.437Z,70.00
2018-03-24T23:03:49.717Z,70.00
2018-03-24T23:06:17.999Z,69.40
2018-03-24T23:08:46.286Z,69.70
2018-03-24T23:11:13.781Z,69.70
2018-03-24T23:13:41.307Z,69.70
2018-03-24T23:16:09.539Z,69.60
2018-03-24T23:18:37.045Z,69.50
2018-03-24T23:21:04.560Z,68.10
2018-03-24T23:23:32.072Z,69.70
2018-03-24T23:25:59.559Z,69.50
2018-03-24T23:28:27.073Z,69.40
2018-03-24T23:30:54.594Z,69.10
2018-03-24T23:33:22.089Z,68.20
2018-03-24T23:35:50.373Z,68.40
2018-03-24T23:38:17.837Z,68.40
2018-03-24T23:40:45.348Z,68.80
2018-03-24T23:43:12.830Z,69.50
2018-03-24T23:45:41.095Z,71.10
2018-03-24T23:48:08.606Z,71.10
2018-03-24T23:50:36.120Z,70.00
2018-03-24T23:53:03.602Z,69.60
2018-03-24T23:55:31.183Z,69.50
2018-03-24T23:57:58.662Z,68.90
